sensor_id;sensor_type;location;lat;lon;timestamp;pressure;altitude;pressure_sealevel;temperature;humidity
49393;BME280;35268;42.642;23.308;2022-12-07T00:01:13;93905.78;;;5.82;76.21
49393;BME280;35268;42.642;23.308;2022-12-07T00:03:39;93899.94;;;5.85;75.96
49393;BME280;35268;42.642;23.308;2022-12-07T00:06:07;93909.16;;;5.88;75.95
49393;BME280;35268;42.642;23.308;2022-12-07T00:08:33;93898.59;;;5.88;75.94
49393;BME280;35268;42.642;23.308;2022-12-07T00:13:29;93896.69;;;5.93;75.55
49393;BME280;35268;42.642;23.308;2022-12-07T00:15:55;93892.16;;;5.94;75.67
49393;BME280;35268;42.642;23.308;2022-12-07T00:18:20;93886.09;;;5.93;75.61
49393;BME280;35268;42.642;23.308;2022-12-07T00:20:45;93890.34;;;5.94;75.58
49393;BME280;35268;42.642;23.308;2022-12-07T00:23:11;93890.59;;;5.93;75.70
49393;BME280;35268;42.642;23.308;2022-12-07T00:25:36;93886.34;;;5.97;75.71
49393;BME280;35268;42.642;23.308;2022-12-07T00:28:02;93893.22;;;5.98;75.51
49393;BME280;35268;42.642;23.308;2022-12-07T00:30:27;93889.50;;;5.99;75.61
49393;BME280;35268;42.642;23.308;2022-12-07T00:32:53;93897.72;;;5.97;75.56
49393;BME280;35268;42.642;23.308;2022-12-07T00:35:18;93899.59;;;5.97;75.50
49393;BME280;35268;42.642;23.308;2022-12-07T00:37:44;93900.38;;;5.97;75.58
49393;BME280;35268;42.642;23.308;2022-12-07T00:40:09;93891.06;;;6.00;75.59
49393;BME280;35268;42.642;23.308;2022-12-07T00:42:35;93887.91;;;5.98;75.57
49393;BME280;35268;42.642;23.308;2022-12-07T00:45:00;93883.13;;;6.00;75.44
49393;BME280;35268;42.642;23.308;2022-12-07T00:47:26;93883.63;;;6.02;75.58
49393;BME280;35268;42.642;23.308;2022-12-07T00:49:51;93885.50;;;6.01;75.54
49393;BME280;35268;42.642;23.308;2022-12-07T00:52:16;93885.84;;;5.95;75.62
49393;BME280;35268;42.642;23.308;2022-12-07T00:54:42;93887.41;;;5.96;75.62
49393;BME280;35268;42.642;23.308;2022-12-07T00:57:07;93891.16;;;5.90;75.93
49393;BME280;35268;42.642;23.308;2022-12-07T00:59:33;93896.03;;;5.82;75.83
49393;BME280;35268;42.642;23.308;2022-12-07T01:01:58;93890.25;;;5.75;76.30
49393;BME280;35268;42.642;23.308;2022-12-07T01:04:23;93887.97;;;5.69;76.64
49393;BME280;35268;42.642;23.308;2022-12-07T01:06:49;93888.84;;;5.59;76.99
49393;BME280;35268;42.642;23.308;2022-12-07T01:09:14;93870.91;;;5.56;77.63
49393;BME280;35268;42.642;23.308;2022-12-07T01:11:40;93877.53;;;5.53;77.68
49393;BME280;35268;42.642;23.308;2022-12-07T01:14:06;93883.06;;;5.57;77.78
49393;BME280;35268;42.642;23.308;2022-12-07T01:16:32;93874.28;;;5.61;78.07
49393;BME280;35268;42.642;23.308;2022-12-07T01:18:59;93873.72;;;5.65;77.78
49393;BME280;35268;42.642;23.308;2022-12-07T01:21:30;93868.44;;;5.65;77.80
49393;BME280;35268;42.642;23.308;2022-12-07T01:23:59;93868.16;;;5.66;77.67
49393;BME280;35268;42.642;23.308;2022-12-07T01:26:26;93868.16;;;5.66;77.77
49393;BME280;35268;42.642;23.308;2022-12-07T01:28:52;93866.81;;;5.69;77.61
49393;BME280;35268;42.642;23.308;2022-12-07T01:31:21;93866.53;;;5.70;77.69
49393;BME280;35268;42.642;23.308;2022-12-07T01:33:49;93864.94;;;5.69;77.43
49393;BME280;35268;42.642;23.308;2022-12-07T01:36:31;93856.75;;;5.71;77.69
49393;BME280;35268;42.642;23.308;2022-12-07T01:38:58;93862.81;;;5.71;77.55
49393;BME280;35268;42.642;23.308;2022-12-07T01:41:27;93859.44;;;5.66;77.35
49393;BME280;35268;42.642;23.308;2022-12-07T01:44:28;93872.59;;;5.71;77.48
49393;BME280;35268;42.642;23.308;2022-12-07T01:47:02;93868.69;;;5.68;77.19
49393;BME280;35268;42.642;23.308;2022-12-07T01:49:44;93870.22;;;5.69;77.03
49393;BME280;35268;42.642;23.308;2022-12-07T01:52:21;93869.19;;;5.70;76.70
49393;BME280;35268;42.642;23.308;2022-12-07T01:54:51;93868.09;;;5.71;76.77
49393;BME280;35268;42.642;23.308;2022-12-07T01:57:18;93857.50;;;5.71;76.89
49393;BME280;35268;42.642;23.308;2022-12-07T01:59:45;93853.25;;;5.75;76.86
49393;BME280;35268;42.642;23.308;2022-12-07T02:02:19;93848.22;;;5.74;76.71
49393;BME280;35268;42.642;23.308;2022-12-07T02:04:45;93848.22;;;5.74;76.61
49393;BME280;35268;42.642;23.308;2022-12-07T02:07:11;93842.66;;;5.75;76.67
49393;BME280;35268;42.642;23.308;2022-12-07T02:09:37;93839.47;;;5.78;76.60
49393;BME280;35268;42.642;23.308;2022-12-07T02:12:03;93842.09;;;5.78;76.77
49393;BME280;35268;42.642;23.308;2022-12-07T02:14:29;93850.31;;;5.77;76.65
49393;BME280;35268;42.642;23.308;2022-12-07T02:25:23;93844.47;;;5.56;77.03
49393;BME280;35268;42.642;23.308;2022-12-07T02:28:04;93844.53;;;5.51;77.15
49393;BME280;35268;42.642;23.308;2022-12-07T02:30:35;93845.66;;;5.45;77.31
49393;BME280;35268;42.642;23.308;2022-12-07T02:33:44;93838.47;;;5.50;77.56
49393;BME280;35268;42.642;23.308;2022-12-07T02:36:22;93835.81;;;5.50;77.55
49393;BME280;35268;42.642;23.308;2022-12-07T02:41:28;93844.53;;;5.51;77.54
49393;BME280;35268;42.642;23.308;2022-12-07T02:43:58;93839.50;;;5.49;77.47
49393;BME280;35268;42.642;23.308;2022-12-07T02:46:34;93839.31;;;5.46;77.05
49393;BME280;35268;42.642;23.308;2022-12-07T02:49:01;93835.84;;;5.45;77.33
49393;BME280;35268;42.642;23.308;2022-12-07T02:51:30;93839.59;;;5.44;77.21
49393;BME280;35268;42.642;23.308;2022-12-07T02:53:56;93839.94;;;5.37;77.25
49393;BME280;35268;42.642;23.308;2022-12-07T03:00:03;93827.53;;;5.33;77.10
49393;BME280;35268;42.642;23.308;2022-12-07T03:08:30;93819.94;;;5.26;77.16
49393;BME280;35268;42.642;23.308;2022-12-07T03:11:06;93812.56;;;5.23;77.03
49393;BME280;35268;42.642;23.308;2022-12-07T03:16:15;93800.44;;;5.22;77.05
49393;BME280;35268;42.642;23.308;2022-12-07T03:18:54;93807.56;;;5.21;76.84
49393;BME280;35268;42.642;23.308;2022-12-07T03:21:27;93808.91;;;5.19;76.64
49393;BME280;35268;42.642;23.308;2022-12-07T03:23:57;93816.31;;;5.17;76.54
49393;BME280;35268;42.642;23.308;2022-12-07T03:26:30;93807.09;;;5.14;76.73
49393;BME280;35268;42.642;23.308;2022-12-07T03:29:00;93811.63;;;5.14;76.28
49393;BME280;35268;42.642;23.308;2022-12-07T03:31:31;93811.09;;;5.12;76.32
49393;BME280;35268;42.642;23.308;2022-12-07T03:34:47;93825.16;;;5.07;76.68
49393;BME280;35268;42.642;23.308;2022-12-07T03:36:56;93823.28;;;5.08;76.94
49393;BME280;35268;42.642;23.308;2022-12-07T03:42:03;93807.72;;;5.06;77.53
49393;BME280;35268;42.642;23.308;2022-12-07T03:44:31;93804.03;;;5.07;77.35
49393;BME280;35268;42.642;23.308;2022-12-07T03:49:37;93818.75;;;5.13;77.32
49393;BME280;35268;42.642;23.308;2022-12-07T03:57:18;93811.84;;;5.17;77.08
49393;BME280;35268;42.642;23.308;2022-12-07T03:59:44;93805.75;;;5.17;77.22
49393;BME280;35268;42.642;23.308;2022-12-07T04:02:12;93798.34;;;5.19;77.09
49393;BME280;35268;42.642;23.308;2022-12-07T04:04:39;93806.00;;;5.20;76.97
49393;BME280;35268;42.642;23.308;2022-12-07T04:07:04;93801.47;;;5.21;76.80
49393;BME280;35268;42.642;23.308;2022-12-07T04:09:30;93806.00;;;5.20;76.77
49393;BME280;35268;42.642;23.308;2022-12-07T04:11:55;93800.44;;;5.22;76.51
49393;BME280;35268;42.642;23.308;2022-12-07T04:14:20;93799.91;;;5.20;76.71
49393;BME280;35268;42.642;23.308;2022-12-07T04:16:54;93804.44;;;5.19;76.30
49393;BME280;35268;42.642;23.308;2022-12-07T04:19:23;93806.25;;;5.19;76.37
49393;BME280;35268;42.642;23.308;2022-12-07T04:21:49;93806.84;;;5.16;76.30
49393;BME280;35268;42.642;23.308;2022-12-07T04:24:15;93803.41;;;5.15;76.80
49393;BME280;35268;42.642;23.308;2022-12-07T04:26:42;93798.91;;;5.16;76.65
49393;BME280;35268;42.642;23.308;2022-12-07T04:29:09;93804.97;;;5.16;76.78
49393;BME280;35268;42.642;23.308;2022-12-07T04:31:35;93803.09;;;5.17;76.95
49393;BME280;35268;42.642;23.308;2022-12-07T04:34:00;93813.47;;;5.13;77.10
49393;BME280;35268;42.642;23.308;2022-12-07T04:36:26;93803.19;;;5.12;77.15
49393;BME280;35268;42.642;23.308;2022-12-07T04:38:53;93809.81;;;5.09;77.19
49393;BME280;35268;42.642;23.308;2022-12-07T04:41:20;93808.22;;;5.08;77.09
49393;BME280;35268;42.642;23.308;2022-12-07T04:43:55;93814.28;;;5.09;76.99
49393;BME280;35268;42.642;23.308;2022-12-07T04:46:22;93816.41;;;5.07;77.08
49393;BME280;35268;42.642;23.308;2022-12-07T04:48:47;93819.63;;;5.03;77.04
49393;BME280;35268;42.642;23.308;2022-12-07T04:51:24;93815.72;;;5.01;77.03
49393;BME280;35268;42.642;23.308;2022-12-07T04:53:49;93816.25;;;4.98;77.12
49393;BME280;35268;42.642;23.308;2022-12-07T04:56:16;93819.41;;;5.00;77.02
49393;BME280;35268;42.642;23.308;2022-12-07T04:58:43;93815.19;;;4.99;77.06
49393;BME280;35268;42.642;23.308;2022-12-07T05:01:09;93810.47;;;4.96;77.08
49393;BME280;35268;42.642;23.308;2022-12-07T05:03:36;93808.09;;;4.94;76.98
49393;BME280;35268;42.642;23.308;2022-12-07T05:06:02;93812.84;;;4.92;76.72
49393;BME280;35268;42.642;23.308;2022-12-07T05:08:27;93817.09;;;4.93;76.45
49393;BME280;35268;42.642;23.308;2022-12-07T05:10:53;93817.09;;;4.93;76.32
49393;BME280;35268;42.642;23.308;2022-12-07T05:13:18;93821.88;;;4.91;76.64
49393;BME280;35268;42.642;23.308;2022-12-07T05:15:43;93824.50;;;4.91;76.63
49393;BME280;35268;42.642;23.308;2022-12-07T05:18:10;93830.31;;;4.88;77.24
49393;BME280;35268;42.642;23.308;2022-12-07T05:20:38;93827.75;;;4.83;77.24
49393;BME280;35268;42.642;23.308;2022-12-07T05:23:03;93828.84;;;4.77;78.08
49393;BME280;35268;42.642;23.308;2022-12-07T05:25:29;93818.31;;;4.72;78.65
49393;BME280;35268;42.642;23.308;2022-12-07T05:27:55;93817.81;;;4.70;79.03
49393;BME280;35268;42.642;23.308;2022-12-07T05:30:20;93814.13;;;4.71;79.54
49393;BME280;35268;42.642;23.308;2022-12-07T05:32:46;93814.66;;;4.68;79.50
49393;BME280;35268;42.642;23.308;2022-12-07T05:35:11;93816.84;;;4.60;79.96
49393;BME280;35268;42.642;23.308;2022-12-07T05:37:36;93814.19;;;4.60;80.45
49393;BME280;35268;42.642;23.308;2022-12-07T05:40:03;93807.56;;;4.63;80.73
49393;BME280;35268;42.642;23.308;2022-12-07T05:42:29;93797.75;;;4.69;80.57
49393;BME280;35268;42.642;23.308;2022-12-07T05:44:54;93799.28;;;4.75;80.43
49393;BME280;35268;42.642;23.308;2022-12-07T05:47:19;93794.47;;;4.82;79.98
49393;BME280;35268;42.642;23.308;2022-12-07T05:49:45;93800.00;;;4.86;79.80
49393;BME280;35268;42.642;23.308;2022-12-07T05:52:11;93790.72;;;4.88;79.58
49393;BME280;35268;42.642;23.308;2022-12-07T05:54:36;93798.09;;;4.91;79.57
49393;BME280;35268;42.642;23.308;2022-12-07T05:57:02;93805.44;;;4.94;79.54
49393;BME280;35268;42.642;23.308;2022-12-07T05:59:27;93808.91;;;4.95;79.36
49393;BME280;35268;42.642;23.308;2022-12-07T06:02:01;93805.69;;;4.98;79.29
49393;BME280;35268;42.642;23.308;2022-12-07T06:04:29;93805.91;;;5.01;79.09
49393;BME280;35268;42.642;23.308;2022-12-07T06:06:55;93803.00;;;5.03;78.76
49393;BME280;35268;42.642;23.308;2022-12-07T06:09:22;93795.59;;;5.05;78.39
49393;BME280;35268;42.642;23.308;2022-12-07T06:11:48;93806.66;;;5.07;78.30
49393;BME280;35268;42.642;23.308;2022-12-07T06:14:32;93802.16;;;5.08;78.93
49393;BME280;35268;42.642;23.308;2022-12-07T06:16:58;93813.97;;;5.15;78.99
49393;BME280;35268;42.642;23.308;2022-12-07T06:19:23;93809.47;;;5.16;78.55
49393;BME280;35268;42.642;23.308;2022-12-07T06:21:48;93817.91;;;5.18;78.40
49393;BME280;35268;42.642;23.308;2022-12-07T06:24:15;93826.59;;;5.23;78.72
49393;BME280;35268;42.642;23.308;2022-12-07T06:26:41;93820.72;;;5.27;78.36
49393;BME280;35268;42.642;23.308;2022-12-07T06:29:07;93819.94;;;5.26;78.30
49393;BME280;35268;42.642;23.308;2022-12-07T06:31:32;93821.28;;;5.23;78.52
49393;BME280;35268;42.642;23.308;2022-12-07T06:34:03;93818.59;;;5.29;78.84
49393;BME280;35268;42.642;23.308;2022-12-07T06:36:30;93830.47;;;5.31;79.03
49393;BME280;35268;42.642;23.308;2022-12-07T06:38:56;93818.53;;;5.34;79.36
49393;BME280;35268;42.642;23.308;2022-12-07T06:41:21;93822.19;;;5.38;79.33
49393;BME280;35268;42.642;23.308;2022-12-07T06:43:47;93819.56;;;5.38;79.56
49393;BME280;35268;42.642;23.308;2022-12-07T06:46:13;93822.13;;;5.43;78.97
49393;BME280;35268;42.642;23.308;2022-12-07T06:48:39;93824.22;;;5.46;78.80
49393;BME280;35268;42.642;23.308;2022-12-07T06:51:05;93821.00;;;5.49;78.81
49393;BME280;35268;42.642;23.308;2022-12-07T06:53:30;93832.59;;;5.53;78.07
49393;BME280;35268;42.642;23.308;2022-12-07T06:55:55;93826.59;;;5.48;78.44
49393;BME280;35268;42.642;23.308;2022-12-07T06:58:21;93825.16;;;5.55;78.69
49393;BME280;35268;42.642;23.308;2022-12-07T07:00:48;93833.34;;;5.59;78.54
49393;BME280;35268;42.642;23.308;2022-12-07T07:03:14;93841.72;;;5.66;78.67
49393;BME280;35268;42.642;23.308;2022-12-07T07:05:41;93845.94;;;5.67;78.41
49393;BME280;35268;42.642;23.308;2022-12-07T07:08:06;93835.13;;;5.63;78.65
49393;BME280;35268;42.642;23.308;2022-12-07T07:10:31;93841.50;;;5.62;77.79
49393;BME280;35268;42.642;23.308;2022-12-07T07:12:57;93831.78;;;5.58;78.17
49393;BME280;35268;42.642;23.308;2022-12-07T07:15:22;93825.25;;;5.50;78.71
49393;BME280;35268;42.642;23.308;2022-12-07T07:17:48;93824.97;;;5.52;79.35
49393;BME280;35268;42.642;23.308;2022-12-07T07:20:13;93825.47;;;5.54;78.91
49393;BME280;35268;42.642;23.308;2022-12-07T07:22:38;93823.34;;;5.56;78.78
49393;BME280;35268;42.642;23.308;2022-12-07T07:25:04;93833.91;;;5.56;78.94
49393;BME280;35268;42.642;23.308;2022-12-07T07:27:29;93831.53;;;5.54;79.00
49393;BME280;35268;42.642;23.308;2022-12-07T07:29:55;93845.53;;;5.55;79.01
49393;BME280;35268;42.642;23.308;2022-12-07T07:32:20;93840.81;;;5.52;78.99
49393;BME280;35268;42.642;23.308;2022-12-07T07:34:47;93843.47;;;5.52;79.16
49393;BME280;35268;42.642;23.308;2022-12-07T07:37:13;93844.03;;;5.49;79.45
49393;BME280;35268;42.642;23.308;2022-12-07T07:39:39;93844.81;;;5.49;79.96
49393;BME280;35268;42.642;23.308;2022-12-07T07:42:05;93847.16;;;5.51;80.99
49393;BME280;35268;42.642;23.308;2022-12-07T07:44:30;93839.97;;;5.56;81.65
49393;BME280;35268;42.642;23.308;2022-12-07T07:46:56;93841.16;;;5.69;80.99
49393;BME280;35268;42.642;23.308;2022-12-07T07:49:21;93841.59;;;5.76;79.67
49393;BME280;35268;42.642;23.308;2022-12-07T07:51:47;93837.25;;;5.86;78.93
49393;BME280;35268;42.642;23.308;2022-12-07T07:54:12;93841.38;;;5.97;78.51
49393;BME280;35268;42.642;23.308;2022-12-07T07:56:37;93846.03;;;6.05;77.21
49393;BME280;35268;42.642;23.308;2022-12-07T07:59:03;93846.78;;;6.11;76.40
49393;BME280;35268;42.642;23.308;2022-12-07T08:01:28;93840.97;;;6.09;76.41
49393;BME280;35268;42.642;23.308;2022-12-07T08:03:54;93831.59;;;6.16;76.40
49393;BME280;35268;42.642;23.308;2022-12-07T08:06:19;93836.31;;;6.19;76.26
49393;BME280;35268;42.642;23.308;2022-12-07T08:08:45;93829.28;;;6.29;76.62
49393;BME280;35268;42.642;23.308;2022-12-07T08:11:10;93835.59;;;6.33;75.71
49393;BME280;35268;42.642;23.308;2022-12-07T08:13:36;93841.69;;;6.33;75.71
49393;BME280;35268;42.642;23.308;2022-12-07T08:16:06;93835.03;;;6.36;75.44
49393;BME280;35268;42.642;23.308;2022-12-07T08:18:37;93828.09;;;6.40;75.20
49393;BME280;35268;42.642;23.308;2022-12-07T08:21:03;93829.59;;;6.46;74.76
49393;BME280;35268;42.642;23.308;2022-12-07T08:23:29;93834.03;;;6.51;74.84
49393;BME280;35268;42.642;23.308;2022-12-07T08:25:55;93833.16;;;6.55;74.55
49393;BME280;35268;42.642;23.308;2022-12-07T08:28:20;93836.31;;;6.57;74.49
49393;BME280;35268;42.642;23.308;2022-12-07T08:30:46;93839.47;;;6.59;74.50
49393;BME280;35268;42.642;23.308;2022-12-07T08:33:11;93828.00;;;6.64;74.23
49393;BME280;35268;42.642;23.308;2022-12-07T08:35:37;93832.22;;;6.65;74.20
49393;BME280;35268;42.642;23.308;2022-12-07T08:38:03;93830.88;;;6.68;74.23
49393;BME280;35268;42.642;23.308;2022-12-07T08:40:28;93829.00;;;6.68;74.15
49393;BME280;35268;42.642;23.308;2022-12-07T08:42:54;93834.59;;;6.67;74.20
49393;BME280;35268;42.642;23.308;2022-12-07T08:45:21;93831.94;;;6.67;74.02
49393;BME280;35268;42.642;23.308;2022-12-07T08:47:54;93830.88;;;6.68;74.00
49393;BME280;35268;42.642;23.308;2022-12-07T08:50:22;93821.94;;;6.63;74.33
49393;BME280;35268;42.642;23.308;2022-12-07T08:52:50;93826.13;;;6.65;74.46
49393;BME280;35268;42.642;23.308;2022-12-07T08:55:18;93823.22;;;6.66;74.48
49393;BME280;35268;42.642;23.308;2022-12-07T08:57:44;93826.56;;;6.72;74.56
49393;BME280;35268;42.642;23.308;2022-12-07T09:00:10;93816.97;;;6.76;74.55
49393;BME280;35268;42.642;23.308;2022-12-07T09:02:35;93815.81;;;6.82;74.68
49393;BME280;35268;42.642;23.308;2022-12-07T09:05:01;93805.59;;;6.89;74.13
49393;BME280;35268;42.642;23.308;2022-12-07T09:07:27;93813.19;;;6.96;74.24
49393;BME280;35268;42.642;23.308;2022-12-07T09:09:52;93809.66;;;7.00;73.84
49393;BME280;35268;42.642;23.308;2022-12-07T09:12:18;93804.47;;;7.09;73.68
49393;BME280;35268;42.642;23.308;2022-12-07T09:14:43;93801.44;;;7.16;73.47
49393;BME280;35268;42.642;23.308;2022-12-07T09:17:11;93789.38;;;7.23;73.21
49393;BME280;35268;42.642;23.308;2022-12-07T09:19:37;93782.91;;;7.30;72.88
49393;BME280;35268;42.642;23.308;2022-12-07T09:22:04;93777.41;;;7.40;72.52
49393;BME280;35268;42.642;23.308;2022-12-07T09:24:32;93787.63;;;7.47;72.57
49393;BME280;35268;42.642;23.308;2022-12-07T09:26:58;93790.69;;;7.54;72.12
49393;BME280;35268;42.642;23.308;2022-12-07T09:29:24;93797.94;;;7.62;71.65
49393;BME280;35268;42.642;23.308;2022-12-07T09:31:50;93792.34;;;7.63;70.51
49393;BME280;35268;42.642;23.308;2022-12-07T09:34:15;93785.06;;;7.69;70.05
49393;BME280;35268;42.642;23.308;2022-12-07T09:36:41;93773.88;;;7.72;70.38
49393;BME280;35268;42.642;23.308;2022-12-07T09:39:08;93773.66;;;7.82;70.82
49393;BME280;35268;42.642;23.308;2022-12-07T09:41:37;93768.75;;;7.90;70.70
49393;BME280;35268;42.642;23.308;2022-12-07T09:44:12;93772.38;;;7.94;70.62
49393;BME280;35268;42.642;23.308;2022-12-07T09:46:40;93761.03;;;8.02;70.56
49393;BME280;35268;42.642;23.308;2022-12-07T09:49:16;93762.66;;;8.12;70.49
49393;BME280;35268;42.642;23.308;2022-12-07T09:51:44;93765.28;;;8.26;69.95
49393;BME280;35268;42.642;23.308;2022-12-07T09:54:13;93767.72;;;8.36;69.83
49393;BME280;35268;42.642;23.308;2022-12-07T09:56:38;93756.09;;;8.46;69.02
49393;BME280;35268;42.642;23.308;2022-12-07T09:59:04;93759.44;;;8.51;68.77
49393;BME280;35268;42.642;23.308;2022-12-07T10:01:31;93743.34;;;8.56;68.78
49393;BME280;35268;42.642;23.308;2022-12-07T10:06:36;93748.16;;;8.77;68.47
49393;BME280;35268;42.642;23.308;2022-12-07T10:09:02;93752.75;;;8.85;67.76
49393;BME280;35268;42.642;23.308;2022-12-07T10:11:28;93743.75;;;8.95;67.31
49393;BME280;35268;42.642;23.308;2022-12-07T10:13:54;93742.06;;;9.08;66.78
49393;BME280;35268;42.642;23.308;2022-12-07T10:18:51;93740.00;;;9.36;66.00
49393;BME280;35268;42.642;23.308;2022-12-07T10:21:22;93745.38;;;9.53;66.19
49393;BME280;35268;42.642;23.308;2022-12-07T10:24:13;93743.69;;;9.66;65.74
49393;BME280;35268;42.642;23.308;2022-12-07T10:29:30;93718.38;;;9.86;65.37
49393;BME280;35268;42.642;23.308;2022-12-07T10:32:38;93711.97;;;9.96;64.65
49393;BME280;35268;42.642;23.308;2022-12-07T10:34:44;93706.47;;;10.01;64.60
49393;BME280;35268;42.642;23.308;2022-12-07T10:39:52;93703.50;;;10.11;64.66
49393;BME280;35268;42.642;23.308;2022-12-07T10:42:31;93702.25;;;10.17;64.53
49393;BME280;35268;42.642;23.308;2022-12-07T10:45:26;93701.94;;;10.19;64.67
49393;BME280;35268;42.642;23.308;2022-12-07T10:51:12;93697.56;;;10.32;64.99
49393;BME280;35268;42.642;23.308;2022-12-07T11:01:41;93673.34;;;10.89;63.62
49393;BME280;35268;42.642;23.308;2022-12-07T11:05:03;93667.91;;;11.07;63.02
49393;BME280;35268;42.642;23.308;2022-12-07T11:12:43;93670.25;;;11.47;58.88
49393;BME280;35268;42.642;23.308;2022-12-07T11:15:17;93662.63;;;11.57;57.73
49393;BME280;35268;42.642;23.308;2022-12-07T11:18:07;93658.16;;;11.70;57.84
49393;BME280;35268;42.642;23.308;2022-12-07T11:20:44;93650.41;;;11.77;57.62
49393;BME280;35268;42.642;23.308;2022-12-07T11:31:19;93636.22;;;11.85;56.15
49393;BME280;35268;42.642;23.308;2022-12-07T11:36:43;93629.88;;;11.99;56.04
49393;BME280;35268;42.642;23.308;2022-12-07T11:41:45;93620.09;;;12.03;56.45
49393;BME280;35268;42.642;23.308;2022-12-07T11:52:43;93627.84;;;11.96;54.41
49393;BME280;35268;42.642;23.308;2022-12-07T12:00:44;93613.03;;;12.19;54.54
49393;BME280;35268;42.642;23.308;2022-12-07T12:03:20;93601.00;;;12.13;54.38
49393;BME280;35268;42.642;23.308;2022-12-07T12:05:49;93606.06;;;12.06;53.68
49393;BME280;35268;42.642;23.308;2022-12-07T12:08:19;93604.31;;;12.10;54.05
49393;BME280;35268;42.642;23.308;2022-12-07T12:10:58;93607.16;;;12.26;53.99
49393;BME280;35268;42.642;23.308;2022-12-07T12:19:32;93589.69;;;12.74;53.56
49393;BME280;35268;42.642;23.308;2022-12-07T12:22:12;93587.78;;;12.87;53.11
49393;BME280;35268;42.642;23.308;2022-12-07T12:24:41;93582.88;;;12.89;51.88
49393;BME280;35268;42.642;23.308;2022-12-07T12:27:15;93579.31;;;12.85;51.49
49393;BME280;35268;42.642;23.308;2022-12-07T12:29:43;93582.75;;;12.85;51.25
49393;BME280;35268;42.642;23.308;2022-12-07T12:32:24;93566.16;;;12.92;51.81
49393;BME280;35268;42.642;23.308;2022-12-07T12:37:44;93555.69;;;12.75;51.99
49393;BME280;35268;42.642;23.308;2022-12-07T12:42:56;93569.38;;;12.61;52.04
49393;BME280;35268;42.642;23.308;2022-12-07T12:45:28;93563.44;;;12.55;52.03
49393;BME280;35268;42.642;23.308;2022-12-07T12:48:04;93561.22;;;12.57;52.00
49393;BME280;35268;42.642;23.308;2022-12-07T12:50:36;93567.84;;;12.72;53.39
49393;BME280;35268;42.642;23.308;2022-12-07T12:53:24;93563.25;;;12.97;52.97
49393;BME280;35268;42.642;23.308;2022-12-07T12:58:44;93566.72;;;12.85;50.08
49393;BME280;35268;42.642;23.308;2022-12-07T13:01:39;93573.97;;;12.73;50.54
49393;BME280;35268;42.642;23.308;2022-12-07T13:04:47;93563.81;;;12.54;51.29
49393;BME280;35268;42.642;23.308;2022-12-07T13:18:34;93570.31;;;12.32;52.51
49393;BME280;35268;42.642;23.308;2022-12-07T13:23:58;93569.75;;;11.93;53.46
49393;BME280;35268;42.642;23.308;2022-12-07T13:26:42;93563.75;;;11.75;54.15
49393;BME280;35268;42.642;23.308;2022-12-07T13:29:20;93573.75;;;11.78;54.42
49393;BME280;35268;42.642;23.308;2022-12-07T13:31:47;93571.53;;;11.80;54.53
49393;BME280;35268;42.642;23.308;2022-12-07T13:34:40;93565.44;;;11.79;54.86
49393;BME280;35268;42.642;23.308;2022-12-07T13:37:24;93562.44;;;11.81;55.09
49393;BME280;35268;42.642;23.308;2022-12-07T13:39:56;93568.84;;;11.89;54.88
49393;BME280;35268;42.642;23.308;2022-12-07T13:42:33;93559.19;;;11.96;53.90
49393;BME280;35268;42.642;23.308;2022-12-07T13:45:13;93551.53;;;11.95;53.85
49393;BME280;35268;42.642;23.308;2022-12-07T13:47:51;93561.41;;;11.94;53.97
49393;BME280;35268;42.642;23.308;2022-12-07T13:50:30;93559.63;;;11.98;53.94
49393;BME280;35268;42.642;23.308;2022-12-07T13:53:00;93560.31;;;11.95;53.99
49393;BME280;35268;42.642;23.308;2022-12-07T13:55:26;93547.72;;;11.96;54.08
49393;BME280;35268;42.642;23.308;2022-12-07T13:57:54;93547.59;;;11.92;54.36
49393;BME280;35268;42.642;23.308;2022-12-07T14:00:26;93544.81;;;11.89;54.83
49393;BME280;35268;42.642;23.308;2022-12-07T14:03:04;93549.03;;;11.90;55.00
49393;BME280;35268;42.642;23.308;2022-12-07T14:05:33;93541.66;;;11.87;54.53
49393;BME280;35268;42.642;23.308;2022-12-07T14:10:37;93555.53;;;11.80;54.75
49393;BME280;35268;42.642;23.308;2022-12-07T14:15:51;93549.22;;;11.63;54.59
49393;BME280;35268;42.642;23.308;2022-12-07T14:23:37;93558.19;;;11.17;56.19
49393;BME280;35268;42.642;23.308;2022-12-07T14:26:13;93567.09;;;11.00;57.12
49393;BME280;35268;42.642;23.308;2022-12-07T14:28:40;93567.44;;;10.90;58.02
49393;BME280;35268;42.642;23.308;2022-12-07T14:33:38;93555.78;;;10.73;57.51
49393;BME280;35268;42.642;23.308;2022-12-07T14:36:04;93558.47;;;10.64;57.62
49393;BME280;35268;42.642;23.308;2022-12-07T14:38:30;93571.19;;;10.59;57.87
49393;BME280;35268;42.642;23.308;2022-12-07T14:40:56;93562.91;;;10.52;58.70
49393;BME280;35268;42.642;23.308;2022-12-07T14:43:45;93563.25;;;10.41;59.31
49393;BME280;35268;42.642;23.308;2022-12-07T14:46:10;93557.66;;;10.34;59.84
49393;BME280;35268;42.642;23.308;2022-12-07T14:48:35;93568.75;;;10.28;59.89
49393;BME280;35268;42.642;23.308;2022-12-07T14:51:01;93557.03;;;10.20;60.08
49393;BME280;35268;42.642;23.308;2022-12-07T14:53:33;93562.34;;;10.11;60.10
49393;BME280;35268;42.642;23.308;2022-12-07T14:55:59;93565.69;;;9.99;60.24
49393;BME280;35268;42.642;23.308;2022-12-07T14:58:24;93560.06;;;9.92;60.53
49393;BME280;35268;42.642;23.308;2022-12-07T15:00:50;93572.56;;;9.83;60.68
49393;BME280;35268;42.642;23.308;2022-12-07T15:03:15;93575.91;;;9.71;61.65
49393;BME280;35268;42.642;23.308;2022-12-07T15:05:41;93577.75;;;9.62;61.78
49393;BME280;35268;42.642;23.308;2022-12-07T15:08:09;93584.66;;;9.54;62.47
49393;BME280;35268;42.642;23.308;2022-12-07T15:10:35;93588.38;;;9.36;62.65
49393;BME280;35268;42.642;23.308;2022-12-07T15:13:04;93575.84;;;9.19;63.46
49393;BME280;35268;42.642;23.308;2022-12-07T15:15:50;93587.56;;;9.09;64.04
49393;BME280;35268;42.642;23.308;2022-12-07T15:18:16;93594.41;;;9.01;64.15
49393;BME280;35268;42.642;23.308;2022-12-07T15:20:42;93590.66;;;8.94;64.50